Time;durP1;ratioP1;P1;durP2;ratioP2;P2;SDS_P1;SDS_P2;PMS_P1;PMS_P2;Temp;Humidity;BMP_temperature;BMP_pressure;BME280_temperature;BME280_humidity;BME280_pressure;Samples;Min_cycle;Max_cycle;Signal;HPM_P1;HPM_P2
2021/03/05 00:00:56;;;;;;;15.32;10.45;;;;;;;;;;5075373;28;20727;-71
2021/03/05 00:03:22;;;;;;;17.20;10.97;;;;;;;;;;5072900;28;20411;-71
2021/03/05 00:05:48;;;;;;;16.58;11.10;;;;;;;;;;5072725;28;20399;-72
2021/03/05 00:08:16;;;;;;;15.55;10.82;;;;;;;;;;5067922;28;20465;-71
2021/03/05 00:10:43;;;;;;;21.48;11.23;;;;;;;;;;5052634;28;20399;-72
2021/03/05 00:13:09;;;;;;;17.10;11.32;;;;;;;;;;5081003;28;20710;-71
2021/03/05 00:15:37;;;;;;;18.90;11.80;;;;;;;;;;5082898;28;20416;-71
2021/03/05 00:18:03;;;;;;;18.50;10.83;;;;;;;;;;5061448;28;20719;-71
2021/03/05 00:20:30;;;;;;;16.75;11.50;;;;;;;;;;5070455;28;20373;-71
2021/03/05 00:22:57;;;;;;;18.52;11.85;;;;;;;;;;5086619;28;20425;-70
2021/03/05 00:25:23;;;;;;;16.48;11.13;;;;;;;;;;5058701;28;20922;-70
2021/03/05 00:27:49;;;;;;;19.83;12.38;;;;;;;;;;5083939;28;20390;-71
2021/03/05 00:30:15;;;;;;;18.92;11.90;;;;;;;;;;5091246;28;20918;-70
2021/03/05 00:32:41;;;;;;;16.50;11.90;;;;;;;;;;5089630;28;20485;-71
2021/03/05 00:35:09;;;;;;;16.35;11.35;;;;;;;;;;5074524;28;20378;-70
2021/03/05 00:37:35;;;;;;;19.17;11.70;;;;;;;;;;5088215;28;20390;-71
2021/03/05 00:40:01;;;;;;;18.42;12.65;;;;;;;;;;5089803;28;20374;-71
2021/03/05 00:42:27;;;;;;;16.25;11.65;;;;;;;;;;5073898;28;20432;-71
2021/03/05 00:44:53;;;;;;;17.13;11.77;;;;;;;;;;5076092;28;20391;-71
2021/03/05 00:47:19;;;;;;;18.13;12.00;;;;;;;;;;5075111;28;20416;-70
2021/03/05 00:49:45;;;;;;;19.83;12.50;;;;;;;;;;5089738;28;20369;-69
2021/03/05 00:52:11;;;;;;;18.63;12.10;;;;;;;;;;5088272;28;20484;-72
2021/03/05 00:54:37;;;;;;;18.63;10.93;;;;;;;;;;5063858;28;20383;-71
2021/03/05 00:57:03;;;;;;;17.17;11.02;;;;;;;;;;5076537;28;20387;-70
2021/03/05 00:59:29;;;;;;;15.82;10.38;;;;;;;;;;5087315;28;20386;-71
2021/03/05 01:01:56;;;;;;;16.95;11.15;;;;;;;;;;5084738;28;20445;-70
2021/03/05 01:04:22;;;;;;;18.02;11.80;;;;;;;;;;5086747;28;20883;-71
2021/03/05 01:06:48;;;;;;;15.48;10.85;;;;;;;;;;5089641;28;20380;-70
2021/03/05 01:09:14;;;;;;;19.38;11.30;;;;;;;;;;5071045;28;21056;-71
2021/03/05 01:11:40;;;;;;;16.95;11.00;;;;;;;;;;5091854;28;20362;-71
2021/03/05 01:14:06;;;;;;;16.95;11.20;;;;;;;;;;5056510;28;20407;-70
2021/03/05 01:16:32;;;;;;;17.48;10.98;;;;;;;;;;5088804;28;20385;-70
2021/03/05 01:18:58;;;;;;;17.63;11.13;;;;;;;;;;5067495;28;20386;-71
2021/03/05 01:21:24;;;;;;;18.13;11.65;;;;;;;;;;5088971;28;20431;-71
2021/03/05 01:23:50;;;;;;;15.20;10.63;;;;;;;;;;5083879;28;20901;-70
2021/03/05 01:26:17;;;;;;;17.52;11.35;;;;;;;;;;5070440;28;20681;-70
2021/03/05 01:28:45;;;;;;;23.17;12.35;;;;;;;;;;5056778;28;20686;-71
2021/03/05 01:31:11;;;;;;;20.13;11.57;;;;;;;;;;5078940;28;20942;-71
2021/03/05 01:33:38;;;;;;;19.60;11.77;;;;;;;;;;5085533;28;20997;-71
2021/03/05 01:36:04;;;;;;;20.40;12.55;;;;;;;;;;5073935;28;20386;-70
2021/03/05 01:38:30;;;;;;;16.58;12.20;;;;;;;;;;5074589;28;20377;-70
2021/03/05 01:40:56;;;;;;;18.40;12.52;;;;;;;;;;5088862;28;20839;-71
2021/03/05 01:43:22;;;;;;;20.30;12.10;;;;;;;;;;5087802;28;20758;-70
2021/03/05 01:45:48;;;;;;;20.05;12.13;;;;;;;;;;5090062;28;20396;-70
2021/03/05 01:48:16;;;;;;;20.05;13.18;;;;;;;;;;5056930;28;20921;-70
2021/03/05 01:50:45;;;;;;;19.58;12.15;;;;;;;;;;5089683;28;20417;-71
2021/03/05 01:53:11;;;;;;;19.50;13.18;;;;;;;;;;5072575;28;20469;-70
2021/03/05 01:55:37;;;;;;;19.88;12.63;;;;;;;;;;5090442;28;20893;-72
2021/03/05 01:58:03;;;;;;;18.77;12.63;;;;;;;;;;5071619;28;20454;-70
2021/03/05 02:00:29;;;;;;;19.10;12.35;;;;;;;;;;5083811;28;20406;-70
2021/03/05 02:02:55;;;;;;;19.20;11.82;;;;;;;;;;5087927;28;20431;-70
2021/03/05 02:05:21;;;;;;;20.48;12.82;;;;;;;;;;5065375;28;20402;-70
2021/03/05 02:07:47;;;;;;;22.38;12.43;;;;;;;;;;5070915;28;20417;-70
2021/03/05 02:10:13;;;;;;;19.45;11.77;;;;;;;;;;5086037;28;20393;-70
2021/03/05 02:12:39;;;;;;;18.95;11.70;;;;;;;;;;5089194;28;20390;-70
2021/03/05 02:15:06;;;;;;;19.63;12.55;;;;;;;;;;5078230;28;20399;-70
2021/03/05 02:17:55;;;;;;;18.42;11.73;;;;;;;;;;5071863;28;20383;-69
2021/03/05 02:20:30;;;;;;;20.13;11.77;;;;;;;;;;5087325;28;20559;-70
2021/03/05 02:23:27;;;;;;;20.67;11.80;;;;;;;;;;5088674;28;20469;-70
2021/03/05 02:25:53;;;;;;;23.73;12.68;;;;;;;;;;5064435;28;20494;-70
2021/03/05 02:28:43;;;;;;;19.75;11.93;;;;;;;;;;5056131;28;20446;-70
2021/03/05 02:31:14;;;;;;;20.48;11.90;;;;;;;;;;5051628;28;20444;-69
2021/03/05 02:33:43;;;;;;;22.02;12.85;;;;;;;;;;5080451;28;20525;-69
2021/03/05 02:36:11;;;;;;;20.57;12.97;;;;;;;;;;5070577;28;20386;-70
2021/03/05 02:38:41;;;;;;;19.67;12.70;;;;;;;;;;5089647;28;20795;-70
2021/03/05 02:41:07;;;;;;;21.50;12.93;;;;;;;;;;5075794;28;20916;-70
2021/03/05 02:43:35;;;;;;;20.48;12.73;;;;;;;;;;5062182;28;20426;-69
2021/03/05 02:46:02;;;;;;;23.77;12.57;;;;;;;;;;5085911;28;20481;-69
2021/03/05 02:48:31;;;;;;;19.42;11.80;;;;;;;;;;5083956;28;20836;-70
2021/03/05 02:51:01;;;;;;;20.92;12.50;;;;;;;;;;5082419;28;20477;-69
2021/03/05 02:53:28;;;;;;;22.02;12.20;;;;;;;;;;5076148;28;20936;-69
2021/03/05 02:55:58;;;;;;;18.58;12.18;;;;;;;;;;5083034;28;20466;-69
2021/03/05 02:58:25;;;;;;;20.52;12.88;;;;;;;;;;5068991;28;20425;-69
2021/03/05 03:00:56;;;;;;;19.20;11.48;;;;;;;;;;5085256;28;20693;-70
2021/03/05 03:03:23;;;;;;;22.17;12.23;;;;;;;;;;5057665;28;20463;-69
2021/03/05 03:05:50;;;;;;;22.45;13.13;;;;;;;;;;5058017;28;20411;-69
2021/03/05 03:08:17;;;;;;;25.10;13.10;;;;;;;;;;5069275;28;20364;-69
2021/03/05 03:10:44;;;;;;;23.95;13.05;;;;;;;;;;5080874;28;20392;-69
2021/03/05 03:13:10;;;;;;;24.10;12.37;;;;;;;;;;5086776;28;20422;-69
2021/03/05 03:15:36;;;;;;;21.90;13.35;;;;;;;;;;5065025;28;20706;-69
2021/03/05 03:18:06;;;;;;;23.05;13.38;;;;;;;;;;5060048;28;21147;-69
2021/03/05 03:20:32;;;;;;;25.52;13.23;;;;;;;;;;5066700;28;20390;-70
2021/03/05 03:22:58;;;;;;;22.67;12.83;;;;;;;;;;5086541;28;20405;-69
2021/03/05 03:25:25;;;;;;;26.30;13.07;;;;;;;;;;5086807;28;20386;-70
2021/03/05 03:27:51;;;;;;;24.23;12.67;;;;;;;;;;5069037;28;20397;-69
2021/03/05 03:30:18;;;;;;;21.25;12.65;;;;;;;;;;5085406;28;20397;-69
2021/03/05 03:32:45;;;;;;;24.35;12.23;;;;;;;;;;5070429;28;20398;-69
2021/03/05 03:35:13;;;;;;;22.48;12.25;;;;;;;;;;5074013;28;20394;-69
2021/03/05 03:37:40;;;;;;;24.88;12.18;;;;;;;;;;5065542;28;20755;-69
2021/03/05 03:40:10;;;;;;;20.20;12.70;;;;;;;;;;5070003;28;20393;-69
2021/03/05 03:42:36;;;;;;;20.73;11.70;;;;;;;;;;5087600;28;20413;-69
2021/03/05 03:45:04;;;;;;;23.45;13.00;;;;;;;;;;5082820;28;20395;-69
2021/03/05 03:47:30;;;;;;;21.80;12.93;;;;;;;;;;5089809;28;20679;-69
2021/03/05 03:49:58;;;;;;;20.73;12.68;;;;;;;;;;5092655;28;20389;-69
2021/03/05 03:52:27;;;;;;;21.35;13.18;;;;;;;;;;5087598;28;20402;-69
2021/03/05 03:54:55;;;;;;;21.55;12.95;;;;;;;;;;5084119;28;20398;-71
2021/03/05 03:57:23;;;;;;;21.58;11.80;;;;;;;;;;5068884;28;20388;-69
2021/03/05 03:59:49;;;;;;;20.48;11.23;;;;;;;;;;5077583;28;20812;-69
2021/03/05 04:02:15;;;;;;;18.50;10.93;;;;;;;;;;5085540;28;20447;-70
2021/03/05 04:04:42;;;;;;;19.98;11.40;;;;;;;;;;5087107;28;20393;-69
2021/03/05 04:07:08;;;;;;;17.52;10.68;;;;;;;;;;5080424;28;20461;-69
2021/03/05 04:09:36;;;;;;;14.73;9.48;;;;;;;;;;5070406;28;20478;-69
2021/03/05 04:12:02;;;;;;;16.70;9.27;;;;;;;;;;5086953;28;20400;-69
2021/03/05 04:14:29;;;;;;;16.65;9.63;;;;;;;;;;5061540;28;20710;-70
2021/03/05 04:16:58;;;;;;;16.42;9.15;;;;;;;;;;5050159;28;20403;-69
2021/03/05 04:19:25;;;;;;;15.35;9.02;;;;;;;;;;5087377;28;20397;-69
2021/03/05 04:21:51;;;;;;;12.68;7.82;;;;;;;;;;5086806;28;20424;-69
2021/03/05 04:24:18;;;;;;;13.27;8.13;;;;;;;;;;5083589;28;21054;-69
2021/03/05 04:26:45;;;;;;;11.40;7.05;;;;;;;;;;5074971;28;20859;-69
2021/03/05 04:29:11;;;;;;;12.90;7.20;;;;;;;;;;5087671;28;20374;-69
2021/03/05 04:31:37;;;;;;;11.35;7.20;;;;;;;;;;5085039;28;20390;-69
2021/03/05 04:34:03;;;;;;;12.90;7.60;;;;;;;;;;5087995;28;20373;-69
2021/03/05 04:36:29;;;;;;;12.20;6.90;;;;;;;;;;5085492;28;20390;-69
2021/03/05 04:38:55;;;;;;;10.57;6.90;;;;;;;;;;5068209;28;20393;-69
2021/03/05 04:41:21;;;;;;;11.32;7.40;;;;;;;;;;5069616;28;20427;-69
2021/03/05 04:43:47;;;;;;;12.30;7.60;;;;;;;;;;5068377;28;20386;-69
2021/03/05 04:46:13;;;;;;;11.73;7.13;;;;;;;;;;5083701;28;20431;-69
2021/03/05 04:48:39;;;;;;;11.93;6.63;;;;;;;;;;5087498;28;20362;-69
2021/03/05 04:51:05;;;;;;;10.70;6.45;;;;;;;;;;5086286;28;20362;-69
2021/03/05 04:53:31;;;;;;;12.10;6.65;;;;;;;;;;5068205;28;20441;-69
2021/03/05 04:55:57;;;;;;;11.50;6.80;;;;;;;;;;5087500;28;20424;-69
2021/03/05 04:58:23;;;;;;;12.65;7.30;;;;;;;;;;5075729;28;20448;-70
2021/03/05 05:00:49;;;;;;;13.27;7.55;;;;;;;;;;5051062;28;20403;-69
2021/03/05 05:03:15;;;;;;;13.20;7.47;;;;;;;;;;5079017;28;20438;-68
2021/03/05 05:05:41;;;;;;;14.55;7.95;;;;;;;;;;5078320;28;20364;-69
2021/03/05 05:08:07;;;;;;;14.87;8.13;;;;;;;;;;5059626;28;20859;-70
2021/03/05 05:10:34;;;;;;;12.53;7.70;;;;;;;;;;5070445;28;20708;-69
2021/03/05 05:13:00;;;;;;;13.90;6.65;;;;;;;;;;5077937;28;20390;-69
2021/03/05 05:15:26;;;;;;;10.73;6.50;;;;;;;;;;5085639;28;20411;-69
2021/03/05 05:17:52;;;;;;;11.65;6.63;;;;;;;;;;5056400;28;20427;-70
2021/03/05 05:20:18;;;;;;;11.02;6.35;;;;;;;;;;5082323;28;20397;-69
2021/03/05 05:22:44;;;;;;;11.25;6.72;;;;;;;;;;5086377;28;20429;-70
2021/03/05 05:25:10;;;;;;;10.68;6.72;;;;;;;;;;5090263;28;20685;-70
2021/03/05 05:27:36;;;;;;;9.03;5.57;;;;;;;;;;5069049;28;20478;-69
2021/03/05 05:30:03;;;;;;;9.50;5.88;;;;;;;;;;5090634;28;20366;-69
2021/03/05 05:32:29;;;;;;;10.02;5.45;;;;;;;;;;5083969;28;20438;-69
2021/03/05 05:34:55;;;;;;;9.57;5.57;;;;;;;;;;5070930;28;20376;-70
2021/03/05 05:37:21;;;;;;;7.93;4.80;;;;;;;;;;5078904;28;20902;-69
2021/03/05 05:39:47;;;;;;;8.23;4.40;;;;;;;;;;5076990;28;20488;-70
2021/03/05 05:42:15;;;;;;;9.18;5.05;;;;;;;;;;5058571;28;20473;-68
2021/03/05 05:44:41;;;;;;;9.82;5.85;;;;;;;;;;5080478;28;20413;-69
2021/03/05 05:47:09;;;;;;;9.27;5.75;;;;;;;;;;5088360;28;20885;-69
2021/03/05 05:49:36;;;;;;;10.45;6.50;;;;;;;;;;5085251;28;20451;-69
2021/03/05 05:52:04;;;;;;;13.50;6.47;;;;;;;;;;5072721;28;20454;-69
2021/03/05 05:54:31;;;;;;;11.05;6.18;;;;;;;;;;5067312;28;20404;-69
2021/03/05 05:56:58;;;;;;;11.35;5.97;;;;;;;;;;5075365;28;20388;-70
2021/03/05 05:59:25;;;;;;;10.93;5.70;;;;;;;;;;5086183;28;20393;-70
2021/03/05 06:01:53;;;;;;;12.45;6.20;;;;;;;;;;5078131;28;20758;-69
2021/03/05 06:04:19;;;;;;;9.13;6.18;;;;;;;;;;5065368;28;20437;-69
2021/03/05 06:06:45;;;;;;;11.15;6.22;;;;;;;;;;5070898;28;20391;-69
2021/03/05 06:09:11;;;;;;;11.88;6.30;;;;;;;;;;5073809;28;20392;-69
2021/03/05 06:11:38;;;;;;;12.88;6.68;;;;;;;;;;5052685;28;20920;-70
2021/03/05 06:14:05;;;;;;;9.45;5.75;;;;;;;;;;5069463;28;20419;-69
2021/03/05 06:16:32;;;;;;;13.50;7.15;;;;;;;;;;5073792;28;20394;-69
2021/03/05 06:18:59;;;;;;;10.90;6.93;;;;;;;;;;5088206;28;20420;-69
2021/03/05 06:21:35;;;;;;;15.13;8.15;;;;;;;;;;5089529;28;20402;-69
2021/03/05 06:24:03;;;;;;;14.13;7.50;;;;;;;;;;5078988;28;20395;-69
2021/03/05 06:26:29;;;;;;;14.18;8.10;;;;;;;;;;5084074;28;20387;-69
2021/03/05 06:29:02;;;;;;;13.35;7.60;;;;;;;;;;5076776;28;20382;-69
2021/03/05 06:31:28;;;;;;;16.27;8.10;;;;;;;;;;5081292;28;20401;-69
2021/03/05 06:33:58;;;;;;;16.90;8.38;;;;;;;;;;5079507;28;20394;-69
2021/03/05 06:36:24;;;;;;;18.30;8.67;;;;;;;;;;5072818;28;20880;-69
2021/03/05 06:38:50;;;;;;;17.42;9.20;;;;;;;;;;5077465;28;20398;-69
2021/03/05 06:41:20;;;;;;;15.10;8.63;;;;;;;;;;5084910;28;20392;-69
2021/03/05 06:43:53;;;;;;;19.85;10.05;;;;;;;;;;5074881;28;20390;-69
2021/03/05 06:46:39;;;;;;;19.27;9.20;;;;;;;;;;5070859;28;20921;-69
2021/03/05 06:49:10;;;;;;;17.88;8.80;;;;;;;;;;5077763;28;20443;-69
2021/03/05 06:51:36;;;;;;;17.10;9.23;;;;;;;;;;5075867;28;20450;-69
2021/03/05 06:54:15;;;;;;;19.00;9.20;;;;;;;;;;5065738;28;20795;-70
2021/03/05 06:56:42;;;;;;;18.98;9.38;;;;;;;;;;5071644;28;20725;-69
2021/03/05 06:59:12;;;;;;;15.80;8.60;;;;;;;;;;5076969;28;20386;-69
2021/03/05 07:01:49;;;;;;;19.83;9.10;;;;;;;;;;5070711;28;20475;-69
2021/03/05 07:04:20;;;;;;;20.23;9.65;;;;;;;;;;5087063;28;20413;-69
2021/03/05 07:06:46;;;;;;;18.63;9.20;;;;;;;;;;5087009;28;20533;-69
2021/03/05 07:09:26;;;;;;;20.45;9.55;;;;;;;;;;5087168;28;20712;-69
2021/03/05 07:11:53;;;;;;;42.50;17.85;;;;;;;;;;5089482;28;20416;-69
2021/03/05 07:14:25;;;;;;;57.42;25.00;;;;;;;;;;5065744;28;20995;-69
2021/03/05 07:16:52;;;;;;;54.90;22.98;;;;;;;;;;5073790;28;20545;-69
2021/03/05 07:19:19;;;;;;;46.60;20.48;;;;;;;;;;5078323;28;20738;-70
2021/03/05 07:21:46;;;;;;;42.92;17.98;;;;;;;;;;5086449;28;20705;-70
2021/03/05 07:24:12;;;;;;;29.83;14.20;;;;;;;;;;5078100;28;20394;-72
2021/03/05 07:29:25;;;;;;;18.80;10.40;;;;;;;;;;5080714;28;20436;-69
2021/03/05 07:31:56;;;;;;;22.42;10.35;;;;;;;;;;5076303;28;20405;-69
2021/03/05 07:34:26;;;;;;;17.63;9.63;;;;;;;;;;5081669;28;20398;-69
2021/03/05 07:36:54;;;;;;;20.03;10.33;;;;;;;;;;5080650;28;20397;-69
2021/03/05 07:39:24;;;;;;;20.30;10.03;;;;;;;;;;5082082;28;20458;-69
2021/03/05 07:41:51;;;;;;;19.67;10.00;;;;;;;;;;5081109;28;20418;-69
2021/03/05 07:44:18;;;;;;;22.63;10.93;;;;;;;;;;5081480;28;20402;-69
2021/03/05 07:46:44;;;;;;;25.02;11.07;;;;;;;;;;5081673;28;20831;-69
2021/03/05 07:49:10;;;;;;;23.27;11.27;;;;;;;;;;5080572;28;20696;-69
2021/03/05 07:51:37;;;;;;;21.60;10.25;;;;;;;;;;5061040;28;20402;-69
2021/03/05 07:54:05;;;;;;;24.27;10.10;;;;;;;;;;5079346;28;20418;-69
2021/03/05 07:56:50;;;;;;;20.55;9.63;;;;;;;;;;5080925;28;20970;-69
2021/03/05 07:59:35;;;;;;;21.27;9.35;;;;;;;;;;5059733;28;20859;-70
2021/03/05 08:02:01;;;;;;;18.00;9.00;;;;;;;;;;5065150;28;20421;-70
2021/03/05 08:04:48;;;;;;;23.70;8.60;;;;;;;;;;5045964;28;20406;-70
2021/03/05 08:07:14;;;;;;;19.50;9.05;;;;;;;;;;5069406;28;20889;-69
2021/03/05 08:09:41;;;;;;;19.60;8.65;;;;;;;;;;5079243;28;20424;-70
2021/03/05 08:12:37;;;;;;;18.07;8.00;;;;;;;;;;5051456;28;20399;-70
2021/03/05 08:15:12;;;;;;;20.73;8.45;;;;;;;;;;5046270;28;20783;-69
2021/03/05 08:17:42;;;;;;;16.80;6.47;;;;;;;;;;5083249;28;20513;-70
2021/03/05 08:20:09;;;;;;;19.00;6.80;;;;;;;;;;5060736;28;21116;-70
2021/03/05 08:22:55;;;;;;;16.05;5.30;;;;;;;;;;5085387;28;20847;-69
2021/03/05 08:25:23;;;;;;;10.27;4.35;;;;;;;;;;5069853;28;20857;-70
2021/03/05 08:27:49;;;;;;;14.38;3.95;;;;;;;;;;5069487;28;20932;-71
2021/03/05 08:30:17;;;;;;;11.53;3.80;;;;;;;;;;5084153;28;20420;-71
2021/03/05 08:32:56;;;;;;;13.85;4.45;;;;;;;;;;5058056;28;20426;-69
2021/03/05 08:35:37;;;;;;;10.68;3.42;;;;;;;;;;5077870;28;20431;-71
2021/03/05 08:38:13;;;;;;;11.23;3.55;;;;;;;;;;5059992;28;20443;-71
2021/03/05 08:40:40;;;;;;;18.90;3.20;;;;;;;;;;5073363;28;20815;-71
2021/03/05 08:43:13;;;;;;;14.43;3.38;;;;;;;;;;5054576;28;20424;-70
2021/03/05 08:45:50;;;;;;;12.27;3.08;;;;;;;;;;5065741;28;20449;-70
2021/03/05 08:48:30;;;;;;;9.82;2.80;;;;;;;;;;5076248;28;20964;-71
2021/03/05 08:51:06;;;;;;;13.57;2.88;;;;;;;;;;5078185;28;20423;-72
2021/03/05 08:53:52;;;;;;;10.65;3.00;;;;;;;;;;5083897;28;20473;-71
2021/03/05 08:56:22;;;;;;;8.15;2.65;;;;;;;;;;5079564;28;20521;-70
2021/03/05 08:59:00;;;;;;;8.15;2.20;;;;;;;;;;5081984;28;20909;-70
2021/03/05 09:01:31;;;;;;;7.93;2.30;;;;;;;;;;5079412;28;20467;-71
2021/03/05 09:04:16;;;;;;;7.22;2.00;;;;;;;;;;5083212;28;20451;-71
2021/03/05 09:06:51;;;;;;;8.70;2.25;;;;;;;;;;5088433;28;20466;-69
2021/03/05 09:09:19;;;;;;;6.18;2.35;;;;;;;;;;5069273;28;20386;-71
2021/03/05 09:11:45;;;;;;;8.05;2.03;;;;;;;;;;5073146;28;20438;-70
2021/03/05 09:14:22;;;;;;;6.87;2.00;;;;;;;;;;5073186;28;20376;-71
2021/03/05 09:16:58;;;;;;;7.07;2.10;;;;;;;;;;5083259;28;20456;-71
2021/03/05 09:19:36;;;;;;;5.90;2.00;;;;;;;;;;5083312;28;20393;-71
2021/03/05 09:22:18;;;;;;;4.90;1.83;;;;;;;;;;5083745;28;20797;-71
2021/03/05 09:25:00;;;;;;;6.18;1.83;;;;;;;;;;5083849;28;20394;-71
2021/03/05 09:27:31;;;;;;;8.80;2.03;;;;;;;;;;5059665;28;20401;-71
2021/03/05 09:29:58;;;;;;;9.07;2.00;;;;;;;;;;5083767;28;20427;-71
2021/03/05 09:32:24;;;;;;;8.00;1.85;;;;;;;;;;5085468;28;20390;-72
2021/03/05 09:34:56;;;;;;;6.45;1.90;;;;;;;;;;5060688;28;20386;-72
2021/03/05 09:37:24;;;;;;;6.38;1.60;;;;;;;;;;5082069;28;20401;-72
2021/03/05 09:39:51;;;;;;;7.03;1.60;;;;;;;;;;5085786;28;20496;-72
2021/03/05 09:42:17;;;;;;;4.35;1.23;;;;;;;;;;5068833;28;20475;-72
2021/03/05 09:44:47;;;;;;;5.32;1.50;;;;;;;;;;5056623;28;20394;-72
2021/03/05 09:47:14;;;;;;;5.28;1.50;;;;;;;;;;5078445;28;21407;-71
2021/03/05 09:49:40;;;;;;;4.82;1.30;;;;;;;;;;5078481;28;20406;-71
2021/03/05 09:52:25;;;;;;;3.63;1.08;;;;;;;;;;5075833;28;20729;-72
2021/03/05 09:54:54;;;;;;;3.28;1.10;;;;;;;;;;5092367;28;20404;-73
2021/03/05 09:57:24;;;;;;;3.78;1.05;;;;;;;;;;5059825;28;20421;-72
2021/03/05 09:59:50;;;;;;;3.42;1.10;;;;;;;;;;5080788;28;20382;-73
2021/03/05 10:02:20;;;;;;;4.78;1.13;;;;;;;;;;5069064;28;20430;-72
2021/03/05 10:04:47;;;;;;;2.03;0.98;;;;;;;;;;5078178;28;20393;-71
2021/03/05 10:07:13;;;;;;;4.07;1.17;;;;;;;;;;5076974;28;20405;-72
2021/03/05 10:09:39;;;;;;;4.03;1.23;;;;;;;;;;5080751;28;20408;-73
2021/03/05 10:12:05;;;;;;;4.78;1.27;;;;;;;;;;5080449;28;20414;-71
2021/03/05 10:14:33;;;;;;;4.53;1.40;;;;;;;;;;5080783;28;20449;-72
2021/03/05 10:17:06;;;;;;;3.35;1.15;;;;;;;;;;5069810;28;20463;-71
2021/03/05 10:19:32;;;;;;;3.45;1.20;;;;;;;;;;5075411;28;20733;-71
2021/03/05 10:22:00;;;;;;;4.32;1.10;;;;;;;;;;5074054;28;20410;-73
2021/03/05 10:24:27;;;;;;;3.08;1.00;;;;;;;;;;5078753;28;20847;-73
2021/03/05 10:27:21;;;;;;;5.28;1.08;;;;;;;;;;5077035;28;20394;-74
2021/03/05 10:29:51;;;;;;;3.40;1.10;;;;;;;;;;5077668;28;20875;-71
2021/03/05 10:32:21;;;;;;;4.25;1.38;;;;;;;;;;5080039;28;20407;-73
2021/03/05 10:34:47;;;;;;;6.32;1.40;;;;;;;;;;5057542;28;20422;-72
2021/03/05 10:37:14;;;;;;;5.40;2.10;;;;;;;;;;5076945;28;20435;-73
2021/03/05 10:39:40;;;;;;;7.30;2.40;;;;;;;;;;5075642;28;20484;-74
2021/03/05 10:42:09;;;;;;;9.48;2.72;;;;;;;;;;5081024;28;20410;-74
2021/03/05 10:44:35;;;;;;;6.67;2.50;;;;;;;;;;5059479;28;20469;-74
2021/03/05 10:47:06;;;;;;;5.28;1.70;;;;;;;;;;5058127;28;20609;-73
2021/03/05 10:49:32;;;;;;;4.90;1.48;;;;;;;;;;5072310;28;20436;-74
2021/03/05 10:51:58;;;;;;;4.28;1.20;;;;;;;;;;5075788;28;20399;-73
2021/03/05 10:54:24;;;;;;;4.75;1.20;;;;;;;;;;5086586;28;20460;-73
2021/03/05 10:56:51;;;;;;;3.53;1.20;;;;;;;;;;5062188;28;20400;-74
2021/03/05 10:59:19;;;;;;;3.88;1.00;;;;;;;;;;5083698;28;20440;-76
2021/03/05 11:01:45;;;;;;;2.80;0.90;;;;;;;;;;5083043;28;20403;-75
2021/03/05 11:04:11;;;;;;;4.87;1.30;;;;;;;;;;5062970;28;20426;-74
2021/03/05 11:06:37;;;;;;;3.47;1.00;;;;;;;;;;5074850;28;20824;-73
2021/03/05 11:09:05;;;;;;;3.97;1.05;;;;;;;;;;5085381;28;20385;-74
2021/03/05 11:11:31;;;;;;;3.07;1.00;;;;;;;;;;5070055;28;20378;-73
2021/03/05 11:13:57;;;;;;;5.80;1.10;;;;;;;;;;5081169;28;20405;-74
2021/03/05 11:16:23;;;;;;;3.60;1.10;;;;;;;;;;5077509;28;20956;-73
2021/03/05 11:18:49;;;;;;;3.95;1.20;;;;;;;;;;5083707;28;20396;-74
2021/03/05 11:21:15;;;;;;;4.07;1.13;;;;;;;;;;5076470;28;20391;-74
2021/03/05 11:23:42;;;;;;;5.20;1.23;;;;;;;;;;5079018;28;20384;-75
2021/03/05 11:26:08;;;;;;;4.50;1.30;;;;;;;;;;5079798;28;20485;-74
2021/03/05 11:28:34;;;;;;;2.88;1.08;;;;;;;;;;5067305;28;20489;-74
2021/03/05 11:31:00;;;;;;;4.60;1.23;;;;;;;;;;5060875;28;20408;-75
2021/03/05 11:33:26;;;;;;;3.22;1.10;;;;;;;;;;5077343;28;20816;-74
2021/03/05 11:35:52;;;;;;;3.78;1.10;;;;;;;;;;5079739;28;20378;-74
2021/03/05 11:38:18;;;;;;;8.10;1.63;;;;;;;;;;5078081;28;20501;-74
2021/03/05 11:40:44;;;;;;;3.47;1.10;;;;;;;;;;5079017;28;20386;-75
2021/03/05 11:43:10;;;;;;;2.30;0.85;;;;;;;;;;5074765;28;20415;-74
2021/03/05 11:45:35;;;;;;;4.40;1.10;;;;;;;;;;5079183;28;21111;-73
2021/03/05 11:48:01;;;;;;;4.85;1.05;;;;;;;;;;5075578;28;20394;-74
2021/03/05 11:50:27;;;;;;;3.50;1.10;;;;;;;;;;5070117;28;20837;-75
2021/03/05 11:52:53;;;;;;;3.05;1.00;;;;;;;;;;5078755;28;20414;-73
2021/03/05 11:55:19;;;;;;;3.13;1.20;;;;;;;;;;5076155;28;20404;-76
2021/03/05 11:57:45;;;;;;;4.82;1.25;;;;;;;;;;5079116;28;20378;-77
2021/03/05 12:00:11;;;;;;;3.30;1.10;;;;;;;;;;5058554;28;20413;-74
2021/03/05 12:02:37;;;;;;;4.07;1.13;;;;;;;;;;5075527;28;21094;-76
2021/03/05 12:05:03;;;;;;;3.92;1.13;;;;;;;;;;5079173;28;20399;-74
2021/03/05 12:07:29;;;;;;;5.53;1.40;;;;;;;;;;5059279;28;21096;-77
2021/03/05 12:09:55;;;;;;;4.15;1.10;;;;;;;;;;5080867;28;20407;-76
2021/03/05 12:12:21;;;;;;;3.00;1.13;;;;;;;;;;5080279;28;20437;-76
2021/03/05 12:14:48;;;;;;;4.90;1.38;;;;;;;;;;5076721;28;20947;-77
2021/03/05 12:17:15;;;;;;;6.63;1.25;;;;;;;;;;5077007;28;20388;-74
2021/03/05 12:19:41;;;;;;;5.38;1.65;;;;;;;;;;5075737;28;20450;-76
2021/03/05 12:22:07;;;;;;;6.53;1.80;;;;;;;;;;5062500;28;20751;-76
2021/03/05 12:24:33;;;;;;;5.13;1.40;;;;;;;;;;5063074;28;20451;-74
2021/03/05 12:27:02;;;;;;;5.72;1.50;;;;;;;;;;5073130;28;20412;-76
2021/03/05 12:29:28;;;;;;;5.47;1.63;;;;;;;;;;5076115;28;20691;-74
2021/03/05 12:31:54;;;;;;;6.55;1.67;;;;;;;;;;5086102;28;20424;-75
2021/03/05 12:34:20;;;;;;;4.90;1.45;;;;;;;;;;5066964;28;20393;-74
2021/03/05 12:36:46;;;;;;;10.17;1.70;;;;;;;;;;5085782;28;20444;-75
2021/03/05 12:39:12;;;;;;;5.15;1.33;;;;;;;;;;5082426;28;20487;-75
2021/03/05 12:41:38;;;;;;;5.18;1.40;;;;;;;;;;5082630;28;20492;-75
2021/03/05 12:44:04;;;;;;;5.78;1.60;;;;;;;;;;5060273;28;20481;-73
2021/03/05 12:46:30;;;;;;;5.38;1.38;;;;;;;;;;5062210;28;20383;-74
2021/03/05 12:48:56;;;;;;;5.40;1.23;;;;;;;;;;5072453;28;20390;-73
2021/03/05 12:51:22;;;;;;;6.70;1.58;;;;;;;;;;5086804;28;20531;-73
2021/03/05 13:35:25;;;;;;;12.75;2.03;;;;;;;;;;5122498;27;20412;-75
2021/03/05 13:37:51;;;;;;;4.85;1.20;;;;;;;;;;5121109;27;20442;-74
2021/03/05 13:42:24;;;;;;;12.00;1.45;;;;;;;;;;5125015;27;20409;-74
2021/03/05 13:44:50;;;;;;;3.50;1.13;;;;;;;;;;5106178;28;20402;-75
2021/03/05 13:47:16;;;;;;;3.35;1.23;;;;;;;;;;5121990;27;20486;-74
2021/03/05 13:49:42;;;;;;;4.30;1.20;;;;;;;;;;5093953;28;20407;-75
2021/03/05 13:52:08;;;;;;;5.28;1.20;;;;;;;;;;5112861;28;20397;-74
2021/03/05 13:54:35;;;;;;;3.67;1.40;;;;;;;;;;5106983;28;20724;-74
2021/03/05 13:57:01;;;;;;;4.70;1.20;;;;;;;;;;5105800;28;20407;-74
2021/03/05 13:59:27;;;;;;;3.80;1.15;;;;;;;;;;5113718;27;20496;-74
2021/03/05 14:01:53;;;;;;;6.63;1.33;;;;;;;;;;5088235;28;20789;-74
2021/03/05 14:04:19;;;;;;;4.63;1.30;;;;;;;;;;5105472;28;20447;-74
2021/03/05 14:06:45;;;;;;;3.72;1.40;;;;;;;;;;5119609;28;20478;-75
2021/03/05 14:09:10;;;;;;;7.45;1.65;;;;;;;;;;5123083;28;20388;-74
2021/03/05 14:11:36;;;;;;;6.53;1.80;;;;;;;;;;5097345;28;20848;-75
2021/03/05 14:31:44;;;;;;;4.80;1.40;;;;;;;;;;5056244;28;20373;-74
2021/03/05 14:34:11;;;;;;;5.97;1.80;;;;;;;;;;5056409;28;20909;-74
2021/03/05 14:36:37;;;;;;;6.97;1.70;;;;;;;;;;5045361;28;20431;-74
2021/03/05 14:39:04;;;;;;;5.87;1.77;;;;;;;;;;5052715;28;20731;-74
2021/03/05 14:41:32;;;;;;;6.60;1.70;;;;;;;;;;5053316;28;20905;-74
2021/03/05 14:43:58;;;;;;;4.78;1.52;;;;;;;;;;5053277;28;20400;-73
2021/03/05 14:46:24;;;;;;;4.88;1.20;;;;;;;;;;5061494;28;20962;-75
2021/03/05 14:48:50;;;;;;;6.00;1.52;;;;;;;;;;5053732;28;20434;-76
2021/03/05 14:51:19;;;;;;;5.00;1.40;;;;;;;;;;5047787;28;20926;-74
2021/03/05 14:53:46;;;;;;;4.35;1.30;;;;;;;;;;5046957;28;20434;-75
2021/03/05 14:56:12;;;;;;;6.30;1.40;;;;;;;;;;5047388;28;20401;-73
2021/03/05 14:58:38;;;;;;;6.82;1.60;;;;;;;;;;5044979;28;20406;-73
2021/03/05 15:01:04;;;;;;;5.75;1.40;;;;;;;;;;5059906;28;20389;-75
2021/03/05 15:03:31;;;;;;;5.40;1.42;;;;;;;;;;5058859;28;22030;-75
2021/03/05 15:05:57;;;;;;;6.00;1.45;;;;;;;;;;5056460;28;20579;-75
2021/03/05 15:08:22;;;;;;;4.30;1.25;;;;;;;;;;5059389;28;20402;-73
2021/03/05 15:10:48;;;;;;;6.90;1.50;;;;;;;;;;5040184;28;20434;-74
2021/03/05 15:13:14;;;;;;;5.20;1.52;;;;;;;;;;5043383;28;20473;-74
2021/03/05 15:15:40;;;;;;;7.05;1.60;;;;;;;;;;5042152;28;21096;-74
2021/03/05 15:18:06;;;;;;;6.72;1.60;;;;;;;;;;5054531;28;20408;-75
2021/03/05 15:20:33;;;;;;;5.17;1.40;;;;;;;;;;5062153;28;20479;-75
2021/03/05 15:22:59;;;;;;;7.45;2.10;;;;;;;;;;5061163;28;20485;-73
2021/03/05 15:25:25;;;;;;;7.00;1.90;;;;;;;;;;5061607;28;20450;-74
2021/03/05 15:27:51;;;;;;;6.88;1.83;;;;;;;;;;5039406;28;20396;-75
2021/03/05 15:30:17;;;;;;;5.95;1.70;;;;;;;;;;5046604;28;20426;-73
2021/03/05 15:32:43;;;;;;;8.23;2.00;;;;;;;;;;5040190;28;20445;-75
2021/03/05 15:35:10;;;;;;;6.82;2.15;;;;;;;;;;5044100;28;20398;-74
2021/03/05 16:13:06;;;;;;;5.65;1.50;;;;;;;;;;5058903;27;1409711;-74
2021/03/05 16:15:32;;;;;;;8.40;1.60;;;;;;;;;;5085152;28;20474;-77